Ana Sayfa
METAR-TAF:

METAR-TAF

Havaalanları :

Person County Airport

Roxboro, Kuzey Carolina, Amerika Birleşik Devletleri

Enlem: 36-17-06N, Boylam: 078-59-03W, yükseklik: 186 m

Güncel hava durumu gözlemi

Rapor saat 15:15 UTC de 26 dakika önce yapıldı.
Rüzgar kuzeydan 5 kt
Sıcaklık 18°C
Nem 52%
Basınç 1022 hPa
Görüş mesafesi: 16.1 km
Açık gökyüzü

METAR: KTDF 241515Z AUTO 36005KT 10SM CLR 18/08 A3018 RMK AO2

Saat: 11:41 (15:41 UTC)


TAF: eksik

4.000'den fazla havaalanı için hava durumu gözlemleri ve tahminleri (METAR ve TAF raporları).

Kullanılabilir istasyonlar harita üzerinde sarı ve kırmızı noktalarla gösterilir.

İstasyonun adını görmek için fareyi noktanın üzerinde gezdirin.

Sonrasında hava gözlem ve tahminlerini görmek için tıklayın.

Haritayı değiştirmek için: yaklaştırmak için siyah artı işaretli yeşil düğmeye ve uzaklaştırmak için de eksi işaretli düğmeye hızla tıklayın; bitişik haritalar için yeşil okları kullanın.


METAR-TAF: